createdAt,value
2023-01-30T00:00:01.667Z,1004.48
2023-01-30T00:05:02.235Z,1004.53
2023-01-30T00:10:02.254Z,1004.45
2023-01-30T00:15:02.214Z,1004.45
2023-01-30T00:25:01.650Z,1004.1
2023-01-30T00:30:03.540Z,1003.9
2023-01-30T00:35:01.679Z,1003.85
2023-01-30T00:40:01.386Z,1003.72
2023-01-30T00:45:01.788Z,1003.58
2023-01-30T00:50:01.955Z,1003.58
2023-01-30T00:55:02.108Z,1003.62
2023-01-30T01:00:01.591Z,1003.45
2023-01-30T01:05:01.450Z,1003.41
2023-01-30T01:10:02.242Z,1003.38
2023-01-30T01:15:01.804Z,1003.44
2023-01-30T01:20:02.222Z,1003.23
2023-01-30T01:25:01.435Z,1003.18
2023-01-30T01:30:02.501Z,1003.28
2023-01-30T01:35:02.064Z,1003.3
2023-01-30T01:40:01.555Z,1003.22
2023-01-30T01:45:02.238Z,1003.22
2023-01-30T01:50:01.497Z,1003.18
2023-01-30T01:55:01.764Z,1003.13
2023-01-30T02:00:01.989Z,1003.18
2023-01-30T02:05:02.229Z,1003.16
2023-01-30T02:10:01.735Z,1003.3
2023-01-30T02:15:02.134Z,1003.09
2023-01-30T02:20:01.446Z,1003.1
2023-01-30T02:25:01.782Z,1003.1
2023-01-30T02:30:02.347Z,1002.89
2023-01-30T02:35:01.920Z,1002.7
2023-01-30T02:40:01.342Z,1002.47
2023-01-30T02:45:01.819Z,1002.3
2023-01-30T02:50:01.976Z,1002.14
2023-01-30T02:55:02.087Z,1002.07
2023-01-30T03:00:01.269Z,1002.11
2023-01-30T03:05:01.741Z,1002.21
2023-01-30T03:10:02.110Z,1002.22
2023-01-30T03:15:02.048Z,1002.23
2023-01-30T03:20:02.163Z,1002.13
2023-01-30T03:25:01.471Z,1001.98
2023-01-30T03:30:02.030Z,1001.82
2023-01-30T03:35:01.654Z,1001.71
2023-01-30T03:40:01.579Z,1001.59
2023-01-30T03:45:01.791Z,1001.52
2023-01-30T03:50:01.422Z,1001.39
2023-01-30T03:55:01.762Z,1001.32
2023-01-30T04:00:01.863Z,1001.26
2023-01-30T04:05:01.481Z,1001.19
2023-01-30T04:10:01.787Z,1001.04
2023-01-30T04:15:02.217Z,1001.04
2023-01-30T04:20:02.271Z,1000.84
2023-01-30T04:25:02.152Z,1000.83
2023-01-30T04:30:02.135Z,1000.65
2023-01-30T04:35:02.176Z,1000.71
2023-01-30T04:40:01.992Z,1000.81
2023-01-30T04:45:01.586Z,1000.9
2023-01-30T04:50:01.682Z,1000.92
2023-01-30T04:55:02.217Z,1000.8
2023-01-30T05:00:01.807Z,1000.82
2023-01-30T05:05:01.645Z,1000.87
2023-01-30T05:10:01.758Z,1000.84
2023-01-30T05:15:01.716Z,1000.78
2023-01-30T05:20:01.979Z,1000.82
2023-01-30T05:25:02.199Z,1000.62
2023-01-30T05:30:02.056Z,1000.64
2023-01-30T05:35:01.475Z,1000.58
2023-01-30T05:40:01.583Z,1000.54
2023-01-30T05:45:02.182Z,1000.62
2023-01-30T05:50:01.689Z,1000.52
2023-01-30T05:55:02.122Z,1000.43
2023-01-30T06:00:01.590Z,1000.53
2023-01-30T06:05:01.992Z,1000.48
2023-01-30T06:10:02.515Z,1000.56
2023-01-30T06:15:01.470Z,1000.59
2023-01-30T06:20:01.547Z,1000.61
2023-01-30T06:25:02.232Z,1000.53
2023-01-30T06:30:01.842Z,1000.51
2023-01-30T06:35:01.634Z,1000.7
2023-01-30T06:40:02.279Z,1000.7
2023-01-30T06:45:02.185Z,1000.77
2023-01-30T06:50:01.903Z,1000.75
2023-01-30T06:55:02.012Z,1000.78
2023-01-30T07:00:01.966Z,1000.85
2023-01-30T07:05:02.017Z,1000.93
2023-01-30T07:10:08.227Z,1000.94
2023-01-30T07:15:01.741Z,1001.01
2023-01-30T07:20:01.620Z,1001.08
2023-01-30T07:25:01.730Z,1000.96
2023-01-30T07:30:01.724Z,1001.11
2023-01-30T07:35:04.265Z,1001.2
2023-01-30T08:30:02.175Z,1001.39
2023-01-30T08:35:01.235Z,1001.42
2023-01-30T08:40:01.296Z,1001.39
2023-01-30T08:45:01.430Z,1001.27
2023-01-30T08:50:01.512Z,1001.37
2023-01-30T08:55:01.576Z,1001.43
2023-01-30T09:00:01.650Z,1001.48
2023-01-30T09:05:01.652Z,1001.54
2023-01-30T09:10:02.123Z,1001.46
2023-01-30T09:15:02.190Z,1001.64
2023-01-30T09:20:02.080Z,1001.56
2023-01-30T09:25:01.807Z,1001.42
2023-01-30T09:30:01.679Z,1001.55
2023-01-30T09:35:01.615Z,1001.62
2023-01-30T09:40:01.497Z,1001.55
2023-01-30T09:45:01.591Z,1001.5
2023-01-30T09:50:01.576Z,1001.51
2023-01-30T09:55:01.475Z,1001.56
2023-01-30T10:00:01.614Z,1001.57
2023-01-30T10:05:02.525Z,1001.52
2023-01-30T10:10:01.738Z,1001.69
2023-01-30T10:15:01.293Z,1001.64
2023-01-30T10:20:01.509Z,1001.63
2023-01-30T10:25:01.646Z,1001.63
2023-01-30T10:30:01.685Z,1001.7
2023-01-30T10:35:01.860Z,1001.67
2023-01-30T10:40:02.137Z,1001.77
2023-01-30T10:45:01.313Z,1001.75
2023-01-30T10:50:01.581Z,1001.83
2023-01-30T10:55:01.723Z,1001.74
2023-01-30T11:00:01.921Z,1001.71
2023-01-30T11:05:02.122Z,1001.64
2023-01-30T11:10:02.094Z,1001.93
2023-01-30T11:15:02.224Z,1001.89
2023-01-30T11:20:01.494Z,1001.87
2023-01-30T11:25:02.324Z,1001.8
2023-01-30T11:30:02.112Z,1001.86
2023-01-30T11:35:02.176Z,1001.75
2023-01-30T11:40:01.744Z,1001.9
2023-01-30T11:45:16.852Z,1001.91
2023-01-30T11:50:03.665Z,1001.86
2023-01-30T11:55:01.671Z,1001.67
2023-01-30T12:00:01.771Z,1001.8
2023-01-30T12:05:01.613Z,1001.87
2023-01-30T12:10:01.788Z,1001.84
2023-01-30T12:15:01.807Z,1001.8
2023-01-30T12:20:02.017Z,1001.84
2023-01-30T12:25:01.928Z,1001.85
2023-01-30T12:30:01.831Z,1001.8
2023-01-30T12:35:02.019Z,1001.84
2023-01-30T12:40:01.892Z,1001.93
2023-01-30T12:45:01.854Z,1002.05
2023-01-30T12:50:01.802Z,1002.08
2023-01-30T12:55:01.801Z,1002.06
2023-01-30T13:00:02.114Z,1002.03
2023-01-30T13:05:04.284Z,1002.25
2023-01-30T13:10:02.199Z,1002.32
2023-01-30T13:15:01.925Z,1002.36
2023-01-30T13:20:01.941Z,1002.27
2023-01-30T13:25:01.855Z,1002.29
2023-01-30T13:30:02.004Z,1002.35
2023-01-30T13:35:02.077Z,1002.56
2023-01-30T13:40:01.699Z,1002.5
2023-01-30T13:45:01.640Z,1002.75
2023-01-30T13:50:01.408Z,1002.81
2023-01-30T13:55:02.002Z,1002.81
2023-01-30T14:00:02.004Z,1002.84
2023-01-30T14:05:02.038Z,1002.88
2023-01-30T14:10:01.512Z,1002.89
2023-01-30T14:15:01.647Z,1002.94
2023-01-30T14:20:01.762Z,1003.08
2023-01-30T14:25:01.631Z,1003.11
2023-01-30T14:30:01.820Z,1003.19
2023-01-30T14:35:01.755Z,1003.27
2023-01-30T14:40:01.786Z,1003.29
2023-01-30T14:45:01.770Z,1003.38
2023-01-30T14:50:01.488Z,1003.49
2023-01-30T14:55:01.462Z,1003.57
2023-01-30T15:00:17.636Z,1003.71
2023-01-30T15:05:01.607Z,1003.75
2023-01-30T15:10:01.776Z,1003.75
2023-01-30T15:20:01.857Z,1003.73
2023-01-30T15:25:01.837Z,1003.78
2023-01-30T15:30:02.038Z,1003.86
2023-01-30T15:35:02.120Z,1003.87
2023-01-30T15:40:02.215Z,1003.91
2023-01-30T15:45:01.963Z,1004.1
2023-01-30T15:50:01.770Z,1004.2
2023-01-30T15:55:01.748Z,1004.31
2023-01-30T16:00:02.243Z,1004.32
2023-01-30T16:05:02.052Z,1004.37
2023-01-30T16:10:07.573Z,1004.48
2023-01-30T16:15:17.541Z,1004.65
2023-01-30T16:20:02.318Z,1004.74
2023-01-30T16:25:01.909Z,1004.88
2023-01-30T16:30:01.921Z,1004.98
2023-01-30T16:35:01.414Z,1005.05
2023-01-30T16:40:01.743Z,1005.07
2023-01-30T16:45:01.695Z,1005.22
2023-01-30T16:50:01.757Z,1005.29
2023-01-30T16:55:01.792Z,1005.4
2023-01-30T17:00:01.795Z,1005.45
2023-01-30T17:05:01.800Z,1005.45
2023-01-30T17:10:01.959Z,1005.57
2023-01-30T17:15:02.247Z,1005.66
2023-01-30T17:20:01.933Z,1005.62
2023-01-30T17:25:01.917Z,1005.7
2023-01-30T17:30:01.928Z,1005.83
2023-01-30T17:35:01.744Z,1005.9
2023-01-30T17:40:01.806Z,1006.02
2023-01-30T17:45:01.726Z,1006.09
2023-01-30T17:50:01.827Z,1006.12
2023-01-30T17:55:02.132Z,1006.23
2023-01-30T18:00:01.780Z,1006.12
2023-01-30T18:05:01.881Z,1006.23
2023-01-30T18:10:01.953Z,1006.3
2023-01-30T18:15:01.871Z,1006.43
2023-01-30T18:20:01.910Z,1006.57
2023-01-30T18:25:01.884Z,1006.7
2023-01-30T18:30:01.756Z,1006.74
2023-01-30T18:35:01.359Z,1006.79
2023-01-30T18:40:01.443Z,1006.75
2023-01-30T18:45:01.978Z,1006.73
2023-01-30T18:50:01.415Z,1006.76
2023-01-30T18:55:01.679Z,1006.8
2023-01-30T19:00:01.735Z,1006.78
2023-01-30T19:05:01.574Z,1006.78
2023-01-30T19:10:01.653Z,1006.94
2023-01-30T19:15:01.630Z,1007.05
2023-01-30T19:20:01.636Z,1006.96
2023-01-30T19:25:01.744Z,1006.93
2023-01-30T19:30:01.896Z,1007.03
2023-01-30T19:35:01.896Z,1007.01
2023-01-30T19:40:01.974Z,1007.09
2023-01-30T19:45:01.966Z,1007.16
2023-01-30T19:50:01.667Z,1007.22
2023-01-30T19:55:01.687Z,1007.26
2023-01-30T20:00:01.662Z,1007.43
2023-01-30T20:05:02.039Z,1007.39
2023-01-30T20:10:02.119Z,1007.51
2023-01-30T20:15:02.201Z,1007.52
2023-01-30T20:20:01.963Z,1007.6
2023-01-30T20:25:02.044Z,1007.66
2023-01-30T20:30:02.077Z,1007.78
2023-01-30T20:35:02.125Z,1007.9
2023-01-30T20:40:01.905Z,1007.88
2023-01-30T20:45:01.657Z,1007.91
2023-01-30T20:50:01.841Z,1007.97
2023-01-30T20:55:01.687Z,1008.04
2023-01-30T21:00:02.168Z,1008.12
2023-01-30T21:05:01.662Z,1008.16
2023-01-30T21:10:02.365Z,1008.22
2023-01-30T21:15:01.802Z,1008.3
2023-01-30T21:20:01.762Z,1008.31
2023-01-30T21:25:01.606Z,1008.3
2023-01-30T21:30:02.018Z,1008.37
2023-01-30T21:35:01.789Z,1008.4
2023-01-30T21:40:02.026Z,1008.45
2023-01-30T21:45:02.066Z,1008.47
2023-01-30T21:50:01.760Z,1008.52
2023-01-30T21:55:01.810Z,1008.54
2023-01-30T22:00:01.829Z,1008.59
2023-01-30T22:05:02.230Z,1008.64
2023-01-30T22:10:01.587Z,1008.7
2023-01-30T22:15:01.292Z,1008.78
2023-01-30T22:20:01.425Z,1008.81
2023-01-30T22:25:01.534Z,1008.86
2023-01-30T22:30:01.579Z,1008.89
2023-01-30T22:35:01.795Z,1008.94
2023-01-30T22:40:02.288Z,1008.92
2023-01-30T22:45:02.194Z,1009
2023-01-30T22:50:01.473Z,1008.96
2023-01-30T22:55:01.641Z,1008.97
2023-01-30T23:00:01.858Z,1009.04
2023-01-30T23:05:02.001Z,1008.97
2023-01-30T23:10:01.703Z,1008.98
2023-01-30T23:15:01.779Z,1009.01
2023-01-30T23:20:01.693Z,1009.17
2023-01-30T23:25:01.647Z,1009.08
2023-01-30T23:30:01.588Z,1009
2023-01-30T23:35:01.565Z,1008.99
2023-01-30T23:40:01.593Z,1009.06
2023-01-30T23:45:01.406Z,1009.05
2023-01-30T23:50:01.407Z,1009.06
2023-01-30T23:55:01.905Z,1008.94
